TimeCST,TemperatureF,Dew PointF,Humidity,Sea Level PressureIn,VisibilityMPH,Wind Direction,Wind SpeedMPH,Gust SpeedMPH,PrecipitationIn,Events,Conditions,WindDirDegrees,DateUTC
12:56 AM,52.0,48.9,89,29.88,10.0,North,10.4,-,N/A,,Overcast,360,2012-12-11 06:56:00
1:56 AM,50.0,46.0,86,29.90,10.0,NNW,10.4,-,N/A,,Overcast,340,2012-12-11 07:56:00
2:29 AM,48.2,44.6,87,29.93,10.0,North,13.8,-,N/A,,Overcast,350,2012-12-11 08:29:00
2:40 AM,48.2,44.6,87,29.92,10.0,North,15.0,-,N/A,,Overcast,360,2012-12-11 08:40:00
2:48 AM,48.2,44.6,87,29.92,10.0,North,15.0,21.9,N/A,,Overcast,360,2012-12-11 08:48:00
2:56 AM,48.0,44.1,86,29.89,10.0,North,13.8,21.9,N/A,,Overcast,350,2012-12-11 08:56:00
3:13 AM,48.2,44.6,87,29.93,10.0,NNW,12.7,-,N/A,,Overcast,340,2012-12-11 09:13:00
3:27 AM,48.2,44.6,87,29.92,10.0,NNW,15.0,-,N/A,,Overcast,340,2012-12-11 09:27:00
3:47 AM,48.2,44.6,87,29.94,10.0,NNW,10.4,-,N/A,,Overcast,340,2012-12-11 09:47:00
3:56 AM,48.0,44.1,86,29.90,10.0,North,15.0,-,N/A,,Overcast,350,2012-12-11 09:56:00
4:21 AM,48.2,42.8,82,29.94,10.0,NNW,10.4,-,N/A,,Overcast,340,2012-12-11 10:21:00
4:56 AM,46.9,42.1,83,29.91,10.0,NNW,12.7,-,N/A,,Overcast,340,2012-12-11 10:56:00
5:56 AM,46.0,41.0,83,29.95,10.0,North,13.8,-,N/A,,Overcast,350,2012-12-11 11:56:00
6:56 AM,45.0,39.0,80,29.96,10.0,North,11.5,-,N/A,,Overcast,360,2012-12-11 12:56:00
7:56 AM,45.0,39.0,80,30.01,10.0,NNW,6.9,-,N/A,,Overcast,340,2012-12-11 13:56:00
8:56 AM,46.0,39.9,79,30.02,10.0,North,9.2,-,N/A,,Overcast,360,2012-12-11 14:56:00
9:44 AM,46.4,39.2,76,30.06,10.0,North,11.5,-,N/A,,Overcast,10,2012-12-11 15:44:00
9:56 AM,48.0,39.9,74,30.03,10.0,North,10.4,-,N/A,,Overcast,350,2012-12-11 15:56:00
10:56 AM,48.0,39.0,71,30.03,10.0,North,10.4,-,N/A,,Overcast,350,2012-12-11 16:56:00
11:56 AM,48.0,39.0,71,30.01,10.0,North,10.4,-,N/A,,Mostly Cloudy,350,2012-12-11 17:56:00
12:56 PM,48.0,39.0,71,30.00,10.0,North,10.4,-,N/A,,Mostly Cloudy,350,2012-12-11 18:56:00
1:56 PM,48.0,37.9,68,30.00,10.0,North,10.4,-,N/A,,Clear,10,2012-12-11 19:56:00
2:56 PM,48.0,37.9,68,30.01,10.0,North,10.4,-,N/A,,Clear,360,2012-12-11 20:56:00
3:56 PM,46.9,37.0,68,30.02,10.0,North,9.2,-,N/A,,Partly Cloudy,360,2012-12-11 21:56:00
4:56 PM,46.9,37.0,68,30.03,10.0,NNE,9.2,-,N/A,,Overcast,20,2012-12-11 22:56:00
5:56 PM,45.0,37.0,74,30.06,10.0,North,9.2,-,N/A,,Overcast,350,2012-12-11 23:56:00
6:56 PM,45.0,37.0,74,30.08,10.0,NNW,5.8,-,N/A,,Clear,330,2012-12-12 00:56:00
7:56 PM,44.1,37.9,79,30.11,10.0,North,8.1,-,0.00,,Overcast,360,2012-12-12 01:56:00
8:56 PM,43.0,39.0,86,30.11,10.0,NNE,6.9,-,0.01,Rain,Light Rain,20,2012-12-12 02:56:00
9:56 PM,43.0,39.0,86,30.12,10.0,North,6.9,-,0.04,Rain,Light Rain,10,2012-12-12 03:56:00
10:56 PM,43.0,39.0,86,30.12,10.0,North,9.2,-,0.01,,Mostly Cloudy,10,2012-12-12 04:56:00
11:56 PM,42.1,37.9,85,30.10,10.0,North,9.2,-,N/A,,Clear,10,2012-12-12 05:56:00